Time;durP1;ratioP1;P1;durP2;ratioP2;P2;SDS_P1;SDS_P2;PMS_P1;PMS_P2;Temp;Humidity;BMP_temperature;BMP_pressure;BME280_temperature;BME280_humidity;BME280_pressure;Samples;Min_cycle;Max_cycle;Signal;HPM_P1;HPM_P2
2023/10/23 00:01:38;;;;;;;0.45;0.45;;;6.70;99.90;;;;;;5096000;28;20100;-83
2023/10/23 00:04:04;;;;;;;0.40;0.40;;;6.80;99.90;;;;;;5111590;27;20437;-81
2023/10/23 00:06:30;;;;;;;;;;;6.70;99.90;;;;;;5104880;28;20104;-82
2023/10/23 00:08:55;;;;;;;0.50;0.50;;;6.70;99.90;;;;;;5110494;27;19923;-82
2023/10/23 00:11:25;;;;;;;0.60;0.60;;;7.10;99.90;;;;;;5100388;28;20048;-81
2023/10/23 00:13:51;;;;;;;0.63;0.63;;;6.70;99.90;;;;;;5105950;28;20079;-82
2023/10/23 00:16:18;;;;;;;1.15;0.93;;;6.70;99.90;;;;;;5092688;28;20480;-81
2023/10/23 00:18:44;;;;;;;0.57;0.57;;;6.60;99.90;;;;;;5101090;28;20071;-82
2023/10/23 00:21:10;;;;;;;0.40;0.40;;;6.60;99.90;;;;;;5082985;28;20083;-81
2023/10/23 00:23:35;;;;;;;0.52;0.52;;;6.60;99.90;;;;;;5108977;27;20043;-82
2023/10/23 00:26:01;;;;;;;0.50;0.50;;;6.80;99.90;;;;;;5082282;28;20115;-82
2023/10/23 00:28:27;;;;;;;0.73;0.73;;;6.60;99.90;;;;;;5110076;27;20062;-82
2023/10/23 00:30:53;;;;;;;0.60;0.60;;;6.50;99.90;;;;;;5111214;28;20099;-82
2023/10/23 00:33:18;;;;;;;0.50;0.50;;;6.50;99.90;;;;;;5089848;28;20051;-82
2023/10/23 00:35:44;;;;;;;0.50;0.50;;;6.50;99.90;;;;;;5107557;27;20052;-81
2023/10/23 00:38:10;;;;;;;0.52;0.52;;;6.40;99.90;;;;;;5091407;28;20048;-82
2023/10/23 00:40:35;;;;;;;0.50;0.50;;;6.80;99.90;;;;;;5107365;28;20104;-82
2023/10/23 00:43:21;;;;;;;0.60;0.60;;;6.40;99.90;;;;;;5098093;28;20055;-82
2023/10/23 00:46:01;;;;;;;0.52;0.52;;;6.40;99.90;;;;;;5081138;28;20078;-82
2023/10/23 00:48:27;;;;;;;0.55;0.55;;;6.40;99.90;;;;;;5106230;28;20074;-82
2023/10/23 00:50:58;;;;;;;0.50;0.50;;;6.40;99.90;;;;;;5101187;28;20482;-84
2023/10/23 00:53:26;;;;;;;0.50;0.50;;;6.40;99.90;;;;;;5081093;28;20056;-82
2023/10/23 00:55:53;;;;;;;0.50;0.50;;;6.30;99.90;;;;;;5126086;27;20558;-82
2023/10/23 00:58:20;;;;;;;0.75;0.75;;;6.40;99.90;;;;;;5080960;28;20059;-82
2023/10/23 01:00:47;;;;;;;0.50;0.50;;;6.30;99.90;;;;;;5088601;28;20048;-82
2023/10/23 01:03:13;;;;;;;0.80;0.80;;;6.30;99.90;;;;;;5105731;28;20036;-82
2023/10/23 01:05:38;;;;;;;0.40;0.40;;;6.30;99.90;;;;;;5108090;27;20470;-82
2023/10/23 01:08:05;;;;;;;1.00;1.00;;;6.30;99.90;;;;;;5102851;27;20048;-81
2023/10/23 01:10:32;;;;;;;0.45;0.45;;;6.30;99.90;;;;;;5110655;28;20050;-81
2023/10/23 01:12:58;;;;;;;0.60;0.60;;;6.30;99.90;;;;;;5101521;28;20047;-81
2023/10/23 01:15:23;;;;;;;0.55;0.55;;;6.20;99.90;;;;;;5092550;28;20043;-82
2023/10/23 01:17:49;;;;;;;0.60;0.60;;;6.20;99.90;;;;;;5086918;27;20047;-82
2023/10/23 01:20:17;;;;;;;;;;;6.10;99.90;;;;;;5086410;28;20486;-82
2023/10/23 01:22:42;;;;;;;0.60;0.60;;;6.10;99.90;;;;;;5089364;28;19962;-82
2023/10/23 01:25:16;;;;;;;0.60;0.60;;;6.10;99.90;;;;;;5116488;27;20083;-83
2023/10/23 01:27:42;;;;;;;0.50;0.50;;;6.10;99.90;;;;;;5086819;28;20055;-83
2023/10/23 01:30:08;;;;;;;;;;;6.10;99.90;;;;;;5109122;27;20129;-82
2023/10/23 01:32:35;;;;;;;0.93;0.93;;;6.10;99.90;;;;;;5076574;28;19924;-82
2023/10/23 01:35:01;;;;;;;0.50;0.50;;;6.10;99.90;;;;;;5111480;28;20070;-83
2023/10/23 01:37:26;;;;;;;0.60;0.60;;;6.00;99.90;;;;;;5090220;28;20486;-81
2023/10/23 01:39:52;;;;;;;0.63;0.63;;;6.10;99.90;;;;;;5087967;28;20039;-80
2023/10/23 01:42:18;;;;;;;0.60;0.60;;;6.20;99.90;;;;;;5130270;27;20066;-82
2023/10/23 01:44:44;;;;;;;0.60;0.60;;;5.90;99.90;;;;;;5110838;28;20087;-82
2023/10/23 01:47:09;;;;;;;0.47;0.47;;;5.90;99.90;;;;;;5105841;28;20036;-82
2023/10/23 01:49:35;;;;;;;0.50;0.50;;;5.80;99.90;;;;;;5087868;28;20062;-82
2023/10/23 01:52:01;;;;;;;0.60;0.60;;;6.00;99.90;;;;;;5120786;27;20055;-83
2023/10/23 01:54:27;;;;;;;0.60;0.60;;;5.80;99.90;;;;;;5108449;28;20051;-82
2023/10/23 01:56:52;;;;;;;0.50;0.50;;;5.80;99.90;;;;;;5080271;28;20067;-82
2023/10/23 01:59:18;;;;;;;0.52;0.52;;;5.80;99.90;;;;;;5112676;28;20861;-83
2023/10/23 02:01:45;;;;;;;0.50;0.50;;;5.80;99.90;;;;;;5093687;28;20087;-82
2023/10/23 02:04:11;;;;;;;0.60;0.60;;;5.90;99.90;;;;;;5104260;28;20397;-84
2023/10/23 02:06:36;;;;;;;0.60;0.60;;;5.80;99.90;;;;;;5105644;28;20039;-83
2023/10/23 02:09:02;;;;;;;0.50;0.50;;;6.90;99.90;;;;;;5131052;27;20044;-82
2023/10/23 02:11:28;;;;;;;;;;;6.20;99.90;;;;;;5093024;28;20482;-84
2023/10/23 02:13:56;;;;;;;0.43;0.43;;;5.90;99.90;;;;;;5101422;28;20015;-83
2023/10/23 02:16:21;;;;;;;0.60;0.60;;;5.90;99.90;;;;;;5109646;28;20043;-83
2023/10/23 02:18:47;;;;;;;0.50;0.50;;;5.90;99.90;;;;;;5107679;28;20043;-83
2023/10/23 02:21:13;;;;;;;0.60;0.60;;;7.20;99.90;;;;;;5080912;28;20055;-83
2023/10/23 02:23:39;;;;;;;0.40;0.40;;;5.80;99.90;;;;;;5102924;28;20044;-83
2023/10/23 02:26:04;;;;;;;0.82;0.82;;;5.90;99.90;;;;;;5074825;28;20554;-83
2023/10/23 02:28:30;;;;;;;2.85;1.70;;;7.20;99.90;;;;;;5089772;28;20044;-83
2023/10/23 02:30:56;;;;;;;0.57;0.57;;;5.90;99.90;;;;;;5085303;28;20524;-82
2023/10/23 02:33:21;;;;;;;6.78;1.08;;;5.90;99.90;;;;;;5101715;28;20071;-81
2023/10/23 02:35:47;;;;;;;0.60;0.60;;;5.90;99.90;;;;;;5082254;28;20055;-82
2023/10/23 02:38:13;;;;;;;0.60;0.60;;;5.80;99.90;;;;;;5101320;28;20478;-83
2023/10/23 02:40:40;;;;;;;0.70;0.70;;;5.80;99.90;;;;;;5096029;28;20431;-83
2023/10/23 02:43:05;;;;;;;0.55;0.55;;;5.90;99.90;;;;;;5101562;28;20599;-82
2023/10/23 02:45:34;;;;;;;0.60;0.60;;;5.90;99.90;;;;;;5072169;28;20146;-84
2023/10/23 02:48:00;;;;;;;0.52;0.52;;;5.90;99.90;;;;;;5109108;28;20401;-82
2023/10/23 02:50:26;;;;;;;0.70;0.70;;;5.90;99.90;;;;;;5105387;28;20040;-83
2023/10/23 02:52:52;;;;;;;0.55;0.55;;;5.80;99.90;;;;;;5080284;28;20062;-82
2023/10/23 02:55:17;;;;;;;0.57;0.57;;;5.80;99.90;;;;;;5108945;28;20055;-83
2023/10/23 02:57:43;;;;;;;0.63;0.63;;;5.80;99.90;;;;;;5110301;27;20044;-82
2023/10/23 03:00:10;;;;;;;0.60;0.60;;;5.80;99.90;;;;;;5104956;28;20082;-84
2023/10/23 03:02:35;;;;;;;0.77;0.77;;;5.80;99.90;;;;;;5110414;28;20048;-83
2023/10/23 03:05:01;;;;;;;0.60;0.60;;;6.20;99.90;;;;;;5114887;28;20052;-84
2023/10/23 03:07:27;;;;;;;0.47;0.47;;;4.50;99.90;;;;;;5086990;28;20062;-83
2023/10/23 03:09:53;;;;;;;0.52;0.52;;;5.80;99.90;;;;;;5100978;28;20055;-82
2023/10/23 03:12:19;;;;;;;1.60;1.50;;;5.60;99.90;;;;;;5079535;28;20063;-83
2023/10/23 03:14:45;;;;;;;0.60;0.60;;;6.30;99.90;;;;;;5098150;28;20091;-84
2023/10/23 03:17:11;;;;;;;0.50;0.50;;;5.70;99.90;;;;;;5113863;27;20040;-85
2023/10/23 03:19:37;;;;;;;0.50;0.50;;;5.60;99.90;;;;;;5079274;28;20073;-83
2023/10/23 03:22:02;;;;;;;0.60;0.60;;;5.60;99.90;;;;;;5093902;28;20051;-82
2023/10/23 03:24:28;;;;;;;0.70;0.70;;;5.60;99.90;;;;;;5107640;28;20521;-82
2023/10/23 03:26:54;;;;;;;0.60;0.60;;;5.60;99.90;;;;;;5130230;27;20090;-84
2023/10/23 03:29:20;;;;;;;0.60;0.60;;;6.50;99.90;;;;;;5109561;28;20044;-83
2023/10/23 03:31:47;;;;;;;0.60;0.60;;;5.50;99.90;;;;;;5082916;28;20032;-85
2023/10/23 03:34:12;;;;;;;0.70;0.70;;;5.50;99.90;;;;;;5101784;28;20386;-84
2023/10/23 03:36:38;;;;;;;0.60;0.60;;;5.60;99.90;;;;;;5111789;28;20044;-84
2023/10/23 03:39:04;;;;;;;0.85;0.85;;;6.40;99.90;;;;;;5096679;28;20816;-85
2023/10/23 03:41:29;;;;;;;0.50;0.50;;;5.50;99.90;;;;;;5094448;28;20040;-83
2023/10/23 03:43:55;;;;;;;0.50;0.50;;;5.50;99.90;;;;;;5094793;28;20050;-82
2023/10/23 03:46:21;;;;;;;0.60;0.60;;;5.40;99.90;;;;;;5074072;28;20048;-85
2023/10/23 03:48:47;;;;;;;;;;;6.40;99.90;;;;;;5112624;28;20051;-84
2023/10/23 03:51:13;;;;;;;0.60;0.60;;;6.40;99.90;;;;;;5135870;27;19930;-83
2023/10/23 03:53:38;;;;;;;0.70;0.70;;;5.80;99.90;;;;;;5111499;28;20398;-83
2023/10/23 03:56:06;;;;;;;3.40;2.58;;;5.30;99.90;;;;;;5102839;28;20052;-85
2023/10/23 03:58:32;;;;;;;0.60;0.60;;;5.80;99.90;;;;;;5115208;27;20359;-83
2023/10/23 04:00:57;;;;;;;0.68;0.68;;;5.40;99.90;;;;;;5094538;28;20176;-84
2023/10/23 04:03:23;;;;;;;0.60;0.60;;;6.10;99.90;;;;;;5103281;28;20075;-84
2023/10/23 04:05:49;;;;;;;0.80;0.80;;;5.20;99.90;;;;;;5102810;28;20051;-83
2023/10/23 04:08:14;;;;;;;0.60;0.60;;;5.20;99.90;;;;;;5120848;27;20057;-83
2023/10/23 04:10:49;;;;;;;0.60;0.60;;;5.60;99.90;;;;;;5094813;28;20044;-83
2023/10/23 04:13:15;;;;;;;0.50;0.50;;;5.70;99.90;;;;;;5086312;28;20040;-84
2023/10/23 04:15:51;;;;;;;0.60;0.60;;;5.10;99.90;;;;;;5108556;28;20070;-84
2023/10/23 04:18:17;;;;;;;0.50;0.50;;;5.10;99.90;;;;;;5114557;27;20432;-83
2023/10/23 04:20:43;;;;;;;0.47;0.47;;;5.80;99.90;;;;;;5130182;27;20058;-84
2023/10/23 04:23:09;;;;;;;0.40;0.40;;;5.00;99.90;;;;;;5105290;28;20113;-85
2023/10/23 04:25:34;;;;;;;0.70;0.70;;;5.50;99.90;;;;;;5107812;28;20083;-84
2023/10/23 04:28:00;;;;;;;0.50;0.50;;;4.90;99.90;;;;;;5098098;28;20532;-84
2023/10/23 04:30:26;;;;;;;0.60;0.60;;;4.90;99.90;;;;;;5096929;28;20063;-84
2023/10/23 04:32:51;;;;;;;0.50;0.50;;;4.90;99.90;;;;;;5084628;28;20051;-83
2023/10/23 04:35:17;;;;;;;0.60;0.60;;;4.90;99.90;;;;;;5093795;28;20084;-83
2023/10/23 04:37:43;;;;;;;0.63;0.63;;;5.00;99.90;;;;;;5069094;28;20055;-84
2023/10/23 04:40:09;;;;;;;0.60;0.60;;;5.00;99.90;;;;;;5095923;28;20047;-84
2023/10/23 04:42:35;;;;;;;0.70;0.70;;;5.00;99.90;;;;;;5099050;28;20090;-83
2023/10/23 04:45:01;;;;;;;0.60;0.60;;;5.00;99.90;;;;;;5106922;28;20043;-83
2023/10/23 04:47:26;;;;;;;0.57;0.57;;;5.20;99.90;;;;;;5099868;28;20608;-85
2023/10/23 04:49:52;;;;;;;0.63;0.63;;;5.10;99.90;;;;;;5106648;28;20047;-84
2023/10/23 04:52:18;;;;;;;0.80;0.80;;;5.60;99.90;;;;;;5104059;27;20040;-84
2023/10/23 04:54:44;;;;;;;0.68;0.68;;;5.10;99.90;;;;;;5086083;28;20047;-85
2023/10/23 04:57:09;;;;;;;0.60;0.60;;;5.30;99.90;;;;;;5098366;28;20482;-84
2023/10/23 04:59:35;;;;;;;0.50;0.50;;;5.40;99.90;;;;;;5099490;27;20043;-84
2023/10/23 05:02:02;;;;;;;0.50;0.50;;;6.50;99.90;;;;;;5086918;28;20027;-83
2023/10/23 05:04:31;;;;;;;0.60;0.60;;;5.30;99.90;;;;;;5069543;28;20048;-83
2023/10/23 05:06:57;;;;;;;0.60;0.60;;;5.80;99.90;;;;;;5103612;28;20035;-86
2023/10/23 05:09:23;;;;;;;0.45;0.45;;;5.10;99.90;;;;;;5102005;27;20040;-84
2023/10/23 05:11:51;;;;;;;0.50;0.50;;;5.00;99.90;;;;;;5097747;28;20422;-83
2023/10/23 05:14:18;;;;;;;0.60;0.60;;;4.80;99.90;;;;;;5065829;28;20058;-83
2023/10/23 05:16:45;;;;;;;0.50;0.50;;;4.80;99.90;;;;;;5098079;28;20397;-85
2023/10/23 05:19:10;;;;;;;0.82;0.82;;;4.80;99.90;;;;;;5077905;28;20445;-84
2023/10/23 05:21:37;;;;;;;0.90;0.90;;;5.10;99.90;;;;;;5086989;28;20055;-84
2023/10/23 05:24:04;;;;;;;0.50;0.50;;;5.00;99.90;;;;;;5094442;28;20491;-86
2023/10/23 05:26:30;;;;;;;0.57;0.57;;;4.60;99.90;;;;;;5087878;28;20490;-83
2023/10/23 05:28:56;;;;;;;0.73;0.73;;;5.00;99.90;;;;;;5092370;28;20100;-85
2023/10/23 05:31:21;;;;;;;0.65;0.65;;;4.60;99.90;;;;;;5088381;27;20060;-84
2023/10/23 05:33:48;;;;;;;0.60;0.60;;;5.60;99.90;;;;;;5079506;28;20075;-83
2023/10/23 05:36:14;;;;;;;0.70;0.70;;;6.20;99.90;;;;;;5116166;27;20044;-84
2023/10/23 05:38:39;;;;;;;0.82;0.82;;;4.70;99.90;;;;;;5102621;28;20607;-85
2023/10/23 05:41:09;;;;;;;0.50;0.50;;;4.50;99.90;;;;;;5100788;28;20035;-83
2023/10/23 05:43:36;;;;;;;0.73;0.73;;;6.10;99.90;;;;;;5082697;28;20854;-84
2023/10/23 05:46:06;;;;;;;0.70;0.70;;;4.50;99.90;;;;;;5080862;28;20060;-85
2023/10/23 05:48:32;;;;;;;0.60;0.60;;;4.50;99.90;;;;;;5113631;27;20043;-83
2023/10/23 05:51:03;;;;;;;0.57;0.57;;;4.50;99.90;;;;;;5096819;28;20497;-85
2023/10/23 05:53:29;;;;;;;1.00;1.00;;;4.60;99.90;;;;;;5063798;28;20060;-84
2023/10/23 05:56:03;;;;;;;0.70;0.70;;;4.50;99.90;;;;;;5118442;27;20494;-84
2023/10/23 05:58:33;;;;;;;0.70;0.70;;;5.60;99.90;;;;;;5101763;28;20051;-82
2023/10/23 06:01:10;;;;;;;0.52;0.52;;;4.50;99.90;;;;;;5082628;28;20067;-83
2023/10/23 06:03:36;;;;;;;1.00;1.00;;;4.50;99.90;;;;;;5104596;28;20079;-85
2023/10/23 06:06:02;;;;;;;0.65;0.65;;;4.40;99.90;;;;;;5099032;28;20043;-84
2023/10/23 06:08:28;;;;;;;0.70;0.70;;;4.60;99.90;;;;;;5084287;28;20032;-84
2023/10/23 06:10:53;;;;;;;0.60;0.60;;;4.70;99.90;;;;;;5107812;28;20048;-84
2023/10/23 06:13:20;;;;;;;0.70;0.70;;;4.30;99.90;;;;;;5104573;28;20050;-84
2023/10/23 06:15:47;;;;;;;0.50;0.50;;;4.40;99.90;;;;;;5090552;28;20114;-85
2023/10/23 06:18:13;;;;;;;0.70;0.70;;;4.30;99.90;;;;;;5072987;28;20075;-83
2023/10/23 06:20:39;;;;;;;0.60;0.60;;;4.20;99.90;;;;;;5102339;28;20059;-85
2023/10/23 06:23:05;;;;;;;0.60;0.60;;;5.80;99.90;;;;;;5088383;28;20389;-84
2023/10/23 06:25:31;;;;;;;0.57;0.57;;;4.20;99.90;;;;;;5072936;28;20044;-85
2023/10/23 06:27:57;;;;;;;;;;;4.30;99.90;;;;;;5079623;28;20044;-83
2023/10/23 06:30:23;;;;;;;0.70;0.70;;;5.90;99.90;;;;;;5098331;28;19924;-84
2023/10/23 06:32:49;;;;;;;0.60;0.60;;;4.10;99.90;;;;;;5084651;28;20039;-85
2023/10/23 06:35:16;;;;;;;0.60;0.60;;;4.20;99.90;;;;;;5122645;27;20043;-85
2023/10/23 06:37:41;;;;;;;0.50;0.50;;;4.20;99.90;;;;;;5102053;28;20055;-83
2023/10/23 06:40:08;;;;;;;0.60;0.60;;;4.20;99.90;;;;;;5099958;28;20044;-85
2023/10/23 06:42:35;;;;;;;0.50;0.50;;;4.00;99.90;;;;;;5090257;28;20048;-84
2023/10/23 06:45:01;;;;;;;0.50;0.50;;;4.00;99.90;;;;;;5128561;27;20039;-85
2023/10/23 06:47:27;;;;;;;0.70;0.70;;;4.00;99.90;;;;;;5129789;27;20043;-83
2023/10/23 06:49:54;;;;;;;;;;;4.60;99.90;;;;;;5130532;28;20043;-85
2023/10/23 06:52:19;;;;;;;0.70;0.70;;;4.00;99.90;;;;;;5131876;27;19924;-84
2023/10/23 06:54:45;;;;;;;0.60;0.60;;;5.20;99.90;;;;;;5102748;28;20059;-86
2023/10/23 06:57:11;;;;;;;0.70;0.70;;;4.20;99.90;;;;;;5110455;28;20036;-85
2023/10/23 06:59:36;;;;;;;0.50;0.50;;;4.10;99.90;;;;;;5134699;27;20379;-85
2023/10/23 07:02:03;;;;;;;0.52;0.52;;;4.20;99.90;;;;;;5127409;28;20054;-85
2023/10/23 07:04:28;;;;;;;;;;;4.20;99.90;;;;;;5105147;28;20044;-83
2023/10/23 07:06:55;;;;;;;0.60;0.60;;;4.10;99.90;;;;;;5123296;27;19982;-85
2023/10/23 07:09:26;;;;;;;0.50;0.50;;;4.30;99.90;;;;;;5118935;28;20078;-84
2023/10/23 07:11:52;;;;;;;0.60;0.60;;;4.20;99.90;;;;;;5120380;27;20075;-85
2023/10/23 07:14:18;;;;;;;0.63;0.63;;;4.40;99.90;;;;;;5116698;27;20502;-85
2023/10/23 07:16:47;;;;;;;0.55;0.55;;;4.20;99.90;;;;;;5134772;27;20125;-84
2023/10/23 07:19:13;;;;;;;0.60;0.60;;;4.30;99.90;;;;;;5115930;28;20044;-83
2023/10/23 07:21:39;;;;;;;1.15;1.15;;;4.40;99.90;;;;;;5114698;28;20372;-86
2023/10/23 07:24:05;;;;;;;0.70;0.70;;;4.50;99.90;;;;;;5113538;28;20120;-85
2023/10/23 07:26:30;;;;;;;;;;;4.50;99.90;;;;;;5113252;27;20056;-81
2023/10/23 07:28:56;;;;;;;1.00;1.00;;;4.60;99.90;;;;;;5111799;28;19931;-84
2023/10/23 07:31:22;;;;;;;0.65;0.65;;;4.90;99.90;;;;;;5097754;28;20563;-87
2023/10/23 07:33:50;;;;;;;0.50;0.50;;;5.00;99.90;;;;;;5136602;27;20496;-84
2023/10/23 07:36:16;;;;;;;0.60;0.60;;;5.00;99.90;;;;;;5078987;28;20378;-86
2023/10/23 07:38:44;;;;;;;0.70;0.70;;;3.90;99.90;;;;;;5096702;28;20050;-83
2023/10/23 07:41:11;;;;;;;0.57;0.57;;;5.00;99.90;;;;;;5093485;28;20047;-85
2023/10/23 07:43:37;;;;;;;0.60;0.60;;;5.10;99.90;;;;;;5111522;28;20496;-85
2023/10/23 07:46:05;;;;;;;0.60;0.60;;;5.40;99.90;;;;;;5110991;28;20047;-85
2023/10/23 07:48:31;;;;;;;0.60;0.60;;;5.40;99.90;;;;;;5092771;28;20040;-84
2023/10/23 07:51:00;;;;;;;0.52;0.52;;;5.40;99.90;;;;;;5111440;27;20058;-83
2023/10/23 07:53:26;;;;;;;0.60;0.60;;;5.50;99.90;;;;;;5114401;27;20044;-85
2023/10/23 07:55:54;;;;;;;0.52;0.52;;;6.10;99.90;;;;;;5090915;28;20056;-83
2023/10/23 07:58:20;;;;;;;0.47;0.47;;;6.30;99.90;;;;;;5094669;28;20039;-84
2023/10/23 08:00:45;;;;;;;0.52;0.52;;;6.10;99.90;;;;;;5127492;27;20051;-85
2023/10/23 08:03:11;;;;;;;0.50;0.50;;;6.30;99.90;;;;;;5108155;28;20046;-85
2023/10/23 08:05:37;;;;;;;0.50;0.50;;;6.30;99.90;;;;;;5108863;27;20039;-85
2023/10/23 08:08:04;;;;;;;0.60;0.60;;;6.30;99.90;;;;;;5074675;28;20126;-85
2023/10/23 08:10:30;;;;;;;0.43;0.43;;;6.50;99.90;;;;;;5109240;28;20131;-84
2023/10/23 08:12:56;;;;;;;0.60;0.60;;;6.60;99.90;;;;;;5092221;28;20082;-85
2023/10/23 08:15:21;;;;;;;0.50;0.50;;;6.70;99.90;;;;;;5108783;27;20074;-84
2023/10/23 08:17:47;;;;;;;0.68;0.68;;;6.90;99.90;;;;;;5108731;28;20134;-83
2023/10/23 08:20:13;;;;;;;0.40;0.40;;;6.90;99.90;;;;;;5122095;27;20093;-86
2023/10/23 08:22:38;;;;;;;0.50;0.50;;;7.00;99.90;;;;;;5096858;28;20043;-84
2023/10/23 08:25:05;;;;;;;0.60;0.60;;;6.90;99.90;;;;;;5108074;28;20464;-85
2023/10/23 08:27:32;;;;;;;;;;;7.10;99.90;;;;;;5111497;27;20042;-84
2023/10/23 08:29:57;;;;;;;0.40;0.40;;;7.10;99.90;;;;;;5089290;28;20015;-85
2023/10/23 08:32:24;;;;;;;0.47;0.47;;;7.30;99.90;;;;;;5094161;28;20134;-85
2023/10/23 08:34:53;;;;;;;0.50;0.50;;;7.50;99.90;;;;;;5110172;28;20113;-84
2023/10/23 08:37:19;;;;;;;0.60;0.60;;;7.60;99.90;;;;;;5120061;27;20047;-85
2023/10/23 08:39:45;;;;;;;0.40;0.40;;;7.70;99.90;;;;;;5111145;27;20117;-84
2023/10/23 08:42:11;;;;;;;0.43;0.43;;;7.60;99.90;;;;;;5091353;28;20084;-86
2023/10/23 08:44:37;;;;;;;0.63;0.63;;;7.80;99.90;;;;;;5089509;28;20052;-85
2023/10/23 08:47:03;;;;;;;0.50;0.50;;;7.80;99.90;;;;;;5092877;28;20055;-84
2023/10/23 08:49:30;;;;;;;0.40;0.40;;;8.00;99.90;;;;;;5111196;28;20126;-84
2023/10/23 08:51:58;;;;;;;0.47;0.47;;;8.00;99.90;;;;;;5102800;28;20040;-85
2023/10/23 08:54:26;;;;;;;0.50;0.50;;;8.00;99.90;;;;;;5106842;28;20055;-85
2023/10/23 08:57:00;;;;;;;0.65;0.65;;;8.20;99.90;;;;;;5108299;28;20044;-84
2023/10/23 08:59:26;;;;;;;0.50;0.50;;;8.40;99.90;;;;;;5077142;28;20055;-85
2023/10/23 09:01:51;;;;;;;0.35;0.35;;;7.10;99.90;;;;;;5073922;28;20494;-85
2023/10/23 09:04:21;;;;;;;0.50;0.50;;;8.40;99.90;;;;;;5089577;27;20062;-85
2023/10/23 09:06:47;;;;;;;0.45;0.45;;;8.40;99.90;;;;;;5092052;27;20035;-83
2023/10/23 09:09:13;;;;;;;0.30;0.30;;;8.60;99.90;;;;;;5106025;27;20039;-83
2023/10/23 09:11:45;;;;;;;;;;;8.60;99.90;;;;;;5109917;28;20089;-85
2023/10/23 09:14:23;;;;;;;1.17;1.10;;;8.60;99.90;;;;;;5087483;28;19987;-84
2023/10/23 09:16:51;;;;;;;0.60;0.60;;;8.80;99.90;;;;;;5119419;27;20055;-84
2023/10/23 09:19:27;;;;;;;0.55;0.55;;;8.80;99.90;;;;;;5072569;28;20470;-83
2023/10/23 09:21:56;;;;;;;0.40;0.40;;;8.90;99.90;;;;;;5094155;27;20108;-84
2023/10/23 09:24:23;;;;;;;0.50;0.50;;;9.10;99.90;;;;;;5104936;28;20054;-85
2023/10/23 09:26:50;;;;;;;0.40;0.40;;;9.10;99.90;;;;;;5091798;28;20062;-85
2023/10/23 09:29:24;;;;;;;0.40;0.40;;;9.00;99.90;;;;;;5106902;27;20100;-83
2023/10/23 09:31:54;;;;;;;0.40;0.40;;;9.30;99.90;;;;;;5108736;28;20112;-85
2023/10/23 09:34:21;;;;;;;0.30;0.30;;;9.30;99.90;;;;;;5092882;28;20223;-85
2023/10/23 09:36:50;;;;;;;0.40;0.40;;;9.30;99.90;;;;;;5074683;28;20055;-85
2023/10/23 09:39:17;;;;;;;0.40;0.40;;;9.60;99.90;;;;;;5109214;28;20067;-83
2023/10/23 09:41:45;;;;;;;0.60;0.60;;;9.30;99.90;;;;;;5090494;28;20039;-83
2023/10/23 09:44:13;;;;;;;0.60;0.60;;;9.40;99.90;;;;;;5104797;27;20039;-85
2023/10/23 09:46:39;;;;;;;0.70;0.70;;;9.50;99.90;;;;;;5121653;27;20119;-85
2023/10/23 09:49:06;;;;;;;0.40;0.40;;;9.60;99.90;;;;;;5093096;28;20147;-86
2023/10/23 09:51:38;;;;;;;0.40;0.40;;;9.70;99.90;;;;;;5121435;27;20047;-84
2023/10/23 09:54:16;;;;;;;0.22;0.22;;;9.80;99.90;;;;;;5104348;28;20044;-82
2023/10/23 09:57:05;;;;;;;0.40;0.40;;;9.80;99.90;;;;;;5109285;28;20039;-84
2023/10/23 09:59:39;;;;;;;0.32;0.32;;;9.80;99.90;;;;;;5104073;28;20053;-84
2023/10/23 10:02:07;;;;;;;0.22;0.22;;;9.90;99.90;;;;;;5106562;28;20047;-83
2023/10/23 10:04:53;;;;;;;0.40;0.40;;;9.90;99.90;;;;;;5109579;28;20631;-84
2023/10/23 10:07:31;;;;;;;0.30;0.30;;;10.00;99.90;;;;;;5093092;28;20048;-84
2023/10/23 10:09:57;;;;;;;0.30;0.30;;;10.10;99.90;;;;;;5068389;28;20079;-84
2023/10/23 10:12:24;;;;;;;0.40;0.40;;;10.20;99.90;;;;;;5104607;28;20100;-82
2023/10/23 10:14:50;;;;;;;0.45;0.45;;;10.30;99.90;;;;;;5111271;28;20462;-84
2023/10/23 10:17:27;;;;;;;0.32;0.32;;;9.70;99.90;;;;;;5110926;28;20119;-85
2023/10/23 10:20:02;;;;;;;0.30;0.30;;;10.40;99.90;;;;;;5113376;28;20130;-85
2023/10/23 10:22:33;;;;;;;0.30;0.30;;;10.50;99.90;;;;;;5082206;28;20043;-82
2023/10/23 10:24:59;;;;;;;0.30;0.30;;;10.60;99.90;;;;;;5082146;28;20084;-83
2023/10/23 10:27:26;;;;;;;0.50;0.50;;;10.70;99.90;;;;;;5097207;28;20048;-85
2023/10/23 10:29:51;;;;;;;1.25;1.20;;;10.80;99.90;;;;;;5116285;28;20044;-85
2023/10/23 10:32:17;;;;;;;0.70;0.60;;;10.90;99.90;;;;;;5094484;28;20092;-84
2023/10/23 10:34:53;;;;;;;0.40;0.40;;;12.50;99.90;;;;;;5091359;28;20078;-84
2023/10/23 10:37:23;;;;;;;0.85;0.85;;;11.10;99.90;;;;;;5072427;28;20051;-86
2023/10/23 10:39:52;;;;;;;0.20;0.20;;;11.20;99.90;;;;;;5101607;28;20073;-86
2023/10/23 10:42:25;;;;;;;0.40;0.30;;;11.40;99.90;;;;;;5082584;28;20044;-84
2023/10/23 10:44:59;;;;;;;0.40;0.40;;;10.00;99.90;;;;;;5101747;28;20052;-82
2023/10/23 10:47:49;;;;;;;0.47;0.47;;;11.50;99.90;;;;;;5096543;28;20469;-85
2023/10/23 10:50:35;;;;;;;0.57;0.57;;;11.60;99.90;;;;;;5097784;28;20083;-84
2023/10/23 10:53:03;;;;;;;0.95;0.93;;;11.90;99.90;;;;;;5107036;28;20059;-83
2023/10/23 10:55:30;;;;;;;1.02;1.02;;;11.90;99.90;;;;;;5079519;28;20130;-84
2023/10/23 10:57:59;;;;;;;0.50;0.50;;;12.00;99.90;;;;;;5098553;28;20059;-83
2023/10/23 11:00:33;;;;;;;0.70;0.70;;;12.20;99.90;;;;;;5100706;28;20054;-83
2023/10/23 11:02:59;;;;;;;0.40;0.40;;;11.50;99.90;;;;;;5115139;28;20397;-82
2023/10/23 11:05:28;;;;;;;0.63;0.30;;;12.60;99.90;;;;;;5102864;28;20135;-83
2023/10/23 11:08:04;;;;;;;0.60;0.60;;;12.40;99.90;;;;;;5112219;28;20087;-84
2023/10/23 11:10:29;;;;;;;0.30;0.30;;;12.60;99.90;;;;;;5102637;28;20053;-84
2023/10/23 11:12:58;;;;;;;0.43;0.40;;;12.50;99.90;;;;;;5086859;28;20438;-83
2023/10/23 11:15:24;;;;;;;0.82;0.82;;;12.60;99.90;;;;;;5112743;28;20561;-83
2023/10/23 11:17:50;;;;;;;1.88;1.67;;;12.70;99.90;;;;;;5078527;28;20043;-84
2023/10/23 11:20:16;;;;;;;;;;;12.80;99.90;;;;;;5117782;28;20042;-83
2023/10/23 11:22:45;;;;;;;0.30;0.30;;;12.90;99.90;;;;;;5116612;28;19923;-84
2023/10/23 11:25:11;;;;;;;0.40;0.40;;;13.00;99.90;;;;;;5118118;27;20120;-82
2023/10/23 11:27:38;;;;;;;0.20;0.20;;;13.00;99.90;;;;;;5098830;27;20827;-83
2023/10/23 11:30:05;;;;;;;0.30;0.30;;;13.20;99.90;;;;;;5096735;27;20130;-85
2023/10/23 11:32:31;;;;;;;0.30;0.30;;;13.30;99.90;;;;;;5100990;28;20360;-85
2023/10/23 11:35:03;;;;;;;;;;;13.40;99.90;;;;;;5118643;27;20036;-82
2023/10/23 11:37:41;;;;;;;0.20;0.20;;;13.50;99.90;;;;;;5108791;28;20481;-83
2023/10/23 11:40:08;;;;;;;0.50;0.50;;;13.70;99.90;;;;;;5103389;27;20047;-82
2023/10/23 11:42:53;;;;;;;0.82;0.82;;;13.80;99.90;;;;;;5115779;27;20040;-85
2023/10/23 11:45:22;;;;;;;0.80;0.40;;;13.90;99.90;;;;;;5098450;27;20104;-84
2023/10/23 11:47:51;;;;;;;0.40;0.40;;;13.90;99.90;;;;;;5121941;27;20573;-84
2023/10/23 11:50:19;;;;;;;0.30;0.30;;;14.00;99.90;;;;;;5119194;27;20039;-84
2023/10/23 11:52:47;;;;;;;0.32;0.32;;;14.10;99.90;;;;;;5121240;27;20054;-84
2023/10/23 11:55:17;;;;;;;0.20;0.20;;;13.30;99.90;;;;;;5118810;28;20052;-83
2023/10/23 11:57:46;;;;;;;0.22;0.22;;;14.20;99.90;;;;;;5104138;28;20104;-85
2023/10/23 12:00:19;;;;;;;0.30;0.30;;;14.30;99.90;;;;;;5089678;28;20043;-84
2023/10/23 12:02:49;;;;;;;0.30;0.30;;;14.30;99.90;;;;;;5108186;28;20075;-84
2023/10/23 12:05:18;;;;;;;0.30;0.30;;;14.10;99.90;;;;;;5117059;28;20136;-82
2023/10/23 12:07:46;;;;;;;0.35;0.35;;;13.40;99.90;;;;;;5107065;28;20074;-84
2023/10/23 12:10:14;;;;;;;0.28;0.28;;;14.20;99.90;;;;;;5118731;28;20053;-82
2023/10/23 12:12:42;;;;;;;0.30;0.30;;;14.30;99.90;;;;;;5115081;28;20053;-83
2023/10/23 12:15:09;;;;;;;0.28;0.28;;;14.30;99.90;;;;;;5118500;28;20051;-84
2023/10/23 12:17:36;;;;;;;0.20;0.20;;;14.50;99.90;;;;;;5107324;28;20063;-84
2023/10/23 12:20:12;;;;;;;0.20;0.20;;;;;;;;;;5124024;27;20052;-84
2023/10/23 12:22:48;;;;;;;0.20;0.20;;;14.50;99.90;;;;;;5109172;28;20367;-83
2023/10/23 12:25:16;;;;;;;0.20;0.20;;;14.50;99.90;;;;;;5085226;28;20039;-83
2023/10/23 12:27:42;;;;;;;0.30;0.30;;;14.50;99.90;;;;;;5109604;28;20051;-83
2023/10/23 12:30:10;;;;;;;0.20;0.20;;;14.40;99.90;;;;;;5089672;28;20051;-82
2023/10/23 12:32:36;;;;;;;0.50;0.50;;;14.40;99.90;;;;;;5091667;28;20402;-83
2023/10/23 12:35:05;;;;;;;0.30;0.30;;;14.40;99.90;;;;;;5140145;27;20043;-81
2023/10/23 12:37:32;;;;;;;0.20;0.20;;;14.40;99.90;;;;;;5108068;28;20079;-83
2023/10/23 12:40:00;;;;;;;0.40;0.40;;;14.40;99.90;;;;;;5098836;28;20054;-84
2023/10/23 12:42:28;;;;;;;0.10;0.10;;;14.50;99.90;;;;;;5099377;28;20535;-83
2023/10/23 12:44:55;;;;;;;0.20;0.20;;;14.50;99.90;;;;;;5117144;28;20059;-82
2023/10/23 12:47:22;;;;;;;0.20;0.20;;;14.60;99.90;;;;;;5113060;27;20803;-83
2023/10/23 12:49:47;;;;;;;0.20;0.20;;;14.60;99.90;;;;;;5115367;28;20075;-83
2023/10/23 12:52:14;;;;;;;0.20;0.20;;;14.60;99.90;;;;;;5116631;28;20074;-82
2023/10/23 12:54:40;;;;;;;0.55;0.55;;;14.60;99.90;;;;;;5084421;28;20107;-83
2023/10/23 12:57:06;;;;;;;0.30;0.30;;;14.50;99.90;;;;;;5072953;28;20106;-82
2023/10/23 12:59:32;;;;;;;;;;;14.50;99.90;;;;;;5098467;28;20135;-82